Old Milo, Arkansas
Current Conditions -  °F | °C
As of 3:15 PM on Friday 24 Oct 2014 (Local Time) from KBQP Reporting Station
Clear Clear  
Wind Chill: 74°   Ceiling: Unl
Heat Index: 74°   Visibility: 10mi
Dew Point: 49°   Wind: 3mph
Humidity: 41%   Direction: 340°NNW
Pressure: 30.12"   Gusts: NA
Location:  33.1762°N, 91.7595°W
Report Text: KBQP 242015Z AUTO 34003KT 10SM CLR 23/09 A3012 RMK AO2 T02320092
Loading
Personal Weather Stations






























Interactive Weather Map
Tropical Storm Tracking
New forecast layout! Learn more

10-Day Weather Forecast

Advertisements
Track Severe Weather on mobile